createdAt,value
2023-03-14T05:17:30.748Z,10.10
2023-03-14T05:19:58.487Z,10.10
2023-03-14T05:22:26.323Z,10.10
2023-03-14T05:24:54.694Z,10.20
2023-03-14T05:27:22.423Z,10.20
2023-03-14T05:29:50.218Z,10.10
2023-03-14T05:32:17.917Z,10.20
2023-03-14T05:34:47.039Z,10.10
2023-03-14T05:37:14.784Z,10.10
2023-03-14T05:39:42.547Z,10.10
2023-03-14T05:42:10.350Z,10.00
2023-03-14T05:44:38.088Z,10.00
2023-03-14T10:32:43.232Z,12.80
2023-03-14T10:35:22.693Z,12.90
2023-03-14T10:37:55.726Z,13.10
2023-03-14T10:40:28.970Z,13.30
2023-03-14T10:42:57.381Z,13.30
2023-03-14T11:14:58.967Z,13.10
2023-03-14T11:17:35.559Z,12.90
2023-03-14T11:20:33.899Z,13.00
2023-03-14T11:23:06.456Z,13.00
2023-03-14T11:25:41.210Z,13.00
2023-03-14T11:28:19.440Z,13.10
2023-03-14T11:30:54.041Z,13.10
2023-03-14T11:33:27.371Z,13.20
2023-03-14T11:36:00.404Z,13.20
2023-03-14T11:38:36.700Z,13.20
2023-03-14T11:41:13.644Z,13.30
2023-03-14T11:43:57.983Z,13.30
2023-03-14T11:46:33.828Z,13.40
2023-03-14T11:49:06.705Z,13.60
2023-03-14T11:51:38.008Z,13.80
2023-03-14T11:54:16.616Z,13.70
2023-03-14T11:56:50.871Z,13.80
2023-03-14T11:59:22.120Z,13.70
2023-03-14T12:02:02.774Z,13.40
2023-03-14T12:04:48.017Z,13.50
2023-03-14T12:07:24.894Z,13.30
2023-03-14T12:09:56.687Z,13.30
2023-03-14T12:12:28.352Z,13.20
2023-03-14T12:14:58.833Z,13.20
2023-03-14T12:17:36.820Z,13.20
2023-03-14T12:20:16.940Z,13.20
2023-03-14T12:30:30.918Z,12.40
2023-03-14T12:33:30.898Z,12.00
2023-03-14T12:36:32.338Z,12.10
2023-03-14T12:39:27.776Z,12.20
2023-03-14T12:42:05.258Z,12.50
2023-03-14T12:44:47.615Z,12.70
2023-03-14T12:48:00.363Z,12.80
2023-03-14T12:50:36.324Z,12.90
2023-03-14T13:08:14.002Z,13.00
2023-03-14T13:10:47.184Z,13.10
2023-03-14T13:13:22.139Z,13.20
2023-03-14T13:15:58.018Z,13.20
2023-03-14T13:18:32.478Z,13.40
2023-03-14T13:21:04.496Z,13.50
2023-03-14T13:23:36.433Z,13.60
2023-03-14T13:26:04.931Z,13.60
2023-03-14T13:28:33.187Z,13.70
2023-03-14T13:31:05.075Z,13.80
2023-03-14T13:33:35.026Z,13.80
2023-03-14T13:36:05.571Z,13.70
2023-03-14T13:38:37.781Z,13.70
2023-03-14T13:41:08.039Z,14.10
2023-03-14T13:43:38.769Z,14.30
2023-03-14T13:46:08.756Z,14.20
2023-03-14T13:48:44.520Z,14.60
2023-03-14T13:51:15.514Z,14.80
2023-03-14T13:53:50.110Z,14.80
2023-03-14T13:56:19.239Z,14.30
2023-03-14T13:58:47.654Z,14.70
2023-03-14T14:01:18.656Z,15.00
2023-03-14T14:03:49.620Z,15.20
2023-03-14T14:06:30.276Z,14.70
2023-03-14T14:09:02.639Z,15.20
2023-03-14T14:11:50.982Z,15.20
2023-03-14T14:14:30.208Z,14.60
2023-03-14T14:17:00.648Z,14.20
2023-03-14T14:19:31.493Z,14.10
2023-03-14T14:22:01.211Z,14.10
2023-03-14T14:24:33.722Z,14.00
2023-03-14T14:27:03.552Z,14.10
2023-03-14T14:29:33.460Z,14.10
2023-03-14T14:32:03.679Z,14.00
2023-03-14T14:34:39.963Z,14.00
2023-03-14T14:37:16.653Z,13.90
2023-03-14T14:39:45.841Z,13.90
2023-03-14T14:42:17.391Z,13.80
2023-03-14T14:44:46.605Z,13.80
2023-03-14T14:47:16.195Z,13.70
2023-03-14T14:49:44.119Z,13.70
2023-03-14T14:52:15.389Z,13.60
2023-03-14T14:54:49.490Z,13.50
2023-03-14T14:57:20.867Z,13.30
2023-03-14T15:00:11.947Z,12.70
2023-03-14T15:02:46.020Z,11.10
2023-03-14T15:05:19.132Z,11.10
2023-03-14T15:07:49.875Z,11.20
2023-03-14T15:10:21.076Z,11.20
2023-03-14T15:12:49.210Z,11.10
2023-03-14T15:15:18.287Z,10.90
2023-03-14T15:17:46.380Z,8.70
2023-03-14T15:20:17.210Z,6.50
2023-03-14T16:38:53.270Z,3.20
2023-03-14T16:41:23.106Z,3.10
2023-03-14T16:43:53.027Z,3.10
2023-03-14T16:46:22.441Z,3.10
2023-03-14T16:48:50.629Z,3.10
2023-03-14T16:51:18.429Z,2.90
2023-03-14T16:53:46.632Z,2.70
2023-03-14T16:56:16.169Z,2.70
2023-03-14T16:58:44.599Z,2.60
2023-03-14T17:01:14.264Z,2.50
2023-03-14T17:03:44.063Z,2.50
2023-03-14T17:06:13.276Z,2.40
2023-03-14T17:08:41.188Z,2.40
2023-03-14T17:11:09.279Z,2.50
2023-03-14T17:13:39.773Z,2.50
2023-03-14T17:16:08.813Z,2.50
2023-03-14T17:18:37.771Z,2.50
2023-03-14T17:21:06.724Z,2.50
2023-03-14T17:23:35.960Z,2.50
2023-03-14T17:26:04.071Z,2.60
2023-03-14T17:28:33.038Z,2.60
